sensor_id;sensor_type;location;lat;lon;timestamp;P1;durP1;ratioP1;P2;durP2;ratioP2
11568;SDS011;5840;46.894;15.542;2023-03-23T00:01:05;10.13;;;9.23;;
11568;SDS011;5840;46.894;15.542;2023-03-23T00:03:35;10.83;;;9.83;;
11568;SDS011;5840;46.894;15.542;2023-03-23T00:06:04;9.83;;;9.00;;
11568;SDS011;5840;46.894;15.542;2023-03-23T00:08:32;10.10;;;9.30;;
11568;SDS011;5840;46.894;15.542;2023-03-23T00:11:02;9.90;;;8.90;;
11568;SDS011;5840;46.894;15.542;2023-03-23T00:13:30;9.90;;;8.90;;
11568;SDS011;5840;46.894;15.542;2023-03-23T00:15:58;10.97;;;9.90;;
11568;SDS011;5840;46.894;15.542;2023-03-23T00:18:25;11.63;;;10.53;;
11568;SDS011;5840;46.894;15.542;2023-03-23T00:20:53;12.73;;;11.53;;
11568;SDS011;5840;46.894;15.542;2023-03-23T00:23:23;13.47;;;12.03;;
11568;SDS011;5840;46.894;15.542;2023-03-23T00:25:51;13.03;;;11.70;;
11568;SDS011;5840;46.894;15.542;2023-03-23T00:28:21;14.73;;;13.23;;
11568;SDS011;5840;46.894;15.542;2023-03-23T00:30:54;11.93;;;10.17;;
11568;SDS011;5840;46.894;15.542;2023-03-23T00:33:22;12.63;;;11.40;;
11568;SDS011;5840;46.894;15.542;2023-03-23T00:35:51;12.70;;;11.50;;
11568;SDS011;5840;46.894;15.542;2023-03-23T00:38:19;12.17;;;11.07;;
11568;SDS011;5840;46.894;15.542;2023-03-23T00:40:48;17.10;;;13.90;;
11568;SDS011;5840;46.894;15.542;2023-03-23T00:43:15;15.27;;;13.17;;
11568;SDS011;5840;46.894;15.542;2023-03-23T00:45:44;16.23;;;14.60;;
11568;SDS011;5840;46.894;15.542;2023-03-23T00:48:17;14.73;;;13.13;;
11568;SDS011;5840;46.894;15.542;2023-03-23T00:50:45;13.80;;;12.53;;
11568;SDS011;5840;46.894;15.542;2023-03-23T00:53:12;13.73;;;12.53;;
11568;SDS011;5840;46.894;15.542;2023-03-23T00:55:40;12.17;;;11.13;;
11568;SDS011;5840;46.894;15.542;2023-03-23T00:58:08;13.37;;;12.07;;
11568;SDS011;5840;46.894;15.542;2023-03-23T01:00:36;15.13;;;13.70;;
11568;SDS011;5840;46.894;15.542;2023-03-23T01:03:03;13.43;;;12.23;;
11568;SDS011;5840;46.894;15.542;2023-03-23T01:05:33;14.30;;;12.97;;
11568;SDS011;5840;46.894;15.542;2023-03-23T01:08:01;14.03;;;12.73;;
11568;SDS011;5840;46.894;15.542;2023-03-23T01:10:28;13.60;;;12.40;;
11568;SDS011;5840;46.894;15.542;2023-03-23T01:12:57;13.17;;;11.97;;
11568;SDS011;5840;46.894;15.542;2023-03-23T01:15:26;13.43;;;12.20;;
11568;SDS011;5840;46.894;15.542;2023-03-23T01:17:54;12.47;;;11.37;;
11568;SDS011;5840;46.894;15.542;2023-03-23T01:20:22;12.47;;;11.40;;
11568;SDS011;5840;46.894;15.542;2023-03-23T01:22:49;12.83;;;11.73;;
11568;SDS011;5840;46.894;15.542;2023-03-23T01:25:18;12.10;;;11.13;;
11568;SDS011;5840;46.894;15.542;2023-03-23T01:27:45;13.07;;;11.83;;
11568;SDS011;5840;46.894;15.542;2023-03-23T01:30:12;12.70;;;11.70;;
11568;SDS011;5840;46.894;15.542;2023-03-23T01:32:41;12.20;;;11.20;;
11568;SDS011;5840;46.894;15.542;2023-03-23T01:35:08;13.27;;;12.03;;
11568;SDS011;5840;46.894;15.542;2023-03-23T01:37:35;12.43;;;11.40;;
11568;SDS011;5840;46.894;15.542;2023-03-23T01:40:02;12.50;;;11.50;;
11568;SDS011;5840;46.894;15.542;2023-03-23T01:42:31;13.57;;;12.47;;
11568;SDS011;5840;46.894;15.542;2023-03-23T01:45:18;12.67;;;11.47;;
11568;SDS011;5840;46.894;15.542;2023-03-23T01:47:51;13.23;;;12.13;;
11568;SDS011;5840;46.894;15.542;2023-03-23T01:50:21;13.13;;;11.97;;
11568;SDS011;5840;46.894;15.542;2023-03-23T01:52:52;13.70;;;12.43;;
11568;SDS011;5840;46.894;15.542;2023-03-23T01:55:21;13.10;;;12.00;;
11568;SDS011;5840;46.894;15.542;2023-03-23T01:57:51;13.10;;;12.00;;
11568;SDS011;5840;46.894;15.542;2023-03-23T02:00:18;14.30;;;13.00;;
11568;SDS011;5840;46.894;15.542;2023-03-23T02:02:47;14.27;;;12.90;;
11568;SDS011;5840;46.894;15.542;2023-03-23T02:05:17;14.17;;;12.83;;
11568;SDS011;5840;46.894;15.542;2023-03-23T02:07:49;14.37;;;12.97;;
11568;SDS011;5840;46.894;15.542;2023-03-23T02:10:17;12.67;;;11.67;;
11568;SDS011;5840;46.894;15.542;2023-03-23T02:12:44;13.20;;;12.10;;
11568;SDS011;5840;46.894;15.542;2023-03-23T02:15:11;13.93;;;12.73;;
11568;SDS011;5840;46.894;15.542;2023-03-23T02:17:39;13.87;;;12.57;;
11568;SDS011;5840;46.894;15.542;2023-03-23T02:20:24;13.63;;;12.33;;
11568;SDS011;5840;46.894;15.542;2023-03-23T02:23:20;13.33;;;12.13;;
11568;SDS011;5840;46.894;15.542;2023-03-23T02:26:01;13.13;;;12.03;;
11568;SDS011;5840;46.894;15.542;2023-03-23T02:28:43;14.40;;;13.10;;
11568;SDS011;5840;46.894;15.542;2023-03-23T02:31:44;14.30;;;12.83;;
11568;SDS011;5840;46.894;15.542;2023-03-23T02:34:27;14.17;;;12.87;;
11568;SDS011;5840;46.894;15.542;2023-03-23T02:36:58;14.63;;;13.30;;
11568;SDS011;5840;46.894;15.542;2023-03-23T02:39:29;13.53;;;12.33;;
11568;SDS011;5840;46.894;15.542;2023-03-23T02:42:02;13.67;;;12.43;;
11568;SDS011;5840;46.894;15.542;2023-03-23T02:44:32;13.73;;;12.63;;
11568;SDS011;5840;46.894;15.542;2023-03-23T02:47:01;14.20;;;13.00;;
11568;SDS011;5840;46.894;15.542;2023-03-23T02:49:32;14.83;;;13.53;;
11568;SDS011;5840;46.894;15.542;2023-03-23T02:52:03;12.53;;;11.53;;
11568;SDS011;5840;46.894;15.542;2023-03-23T02:54:37;12.53;;;11.23;;
11568;SDS011;5840;46.894;15.542;2023-03-23T02:57:06;13.57;;;12.27;;
11568;SDS011;5840;46.894;15.542;2023-03-23T02:59:33;13.23;;;12.13;;
11568;SDS011;5840;46.894;15.542;2023-03-23T03:02:01;12.43;;;11.43;;
11568;SDS011;5840;46.894;15.542;2023-03-23T03:04:34;13.53;;;12.20;;
11568;SDS011;5840;46.894;15.542;2023-03-23T03:07:16;13.83;;;12.73;;
11568;SDS011;5840;46.894;15.542;2023-03-23T03:09:56;14.40;;;13.10;;
11568;SDS011;5840;46.894;15.542;2023-03-23T03:12:30;14.97;;;13.47;;
11568;SDS011;5840;46.894;15.542;2023-03-23T03:15:06;13.63;;;12.53;;
11568;SDS011;5840;46.894;15.542;2023-03-23T03:17:41;14.60;;;13.27;;
11568;SDS011;5840;46.894;15.542;2023-03-23T03:20:12;14.20;;;13.10;;
11568;SDS011;5840;46.894;15.542;2023-03-23T03:22:41;15.60;;;14.30;;
11568;SDS011;5840;46.894;15.542;2023-03-23T03:25:10;15.03;;;13.60;;
11568;SDS011;5840;46.894;15.542;2023-03-23T03:27:40;15.20;;;13.90;;
11568;SDS011;5840;46.894;15.542;2023-03-23T03:30:11;14.70;;;13.50;;
11568;SDS011;5840;46.894;15.542;2023-03-23T03:32:42;13.77;;;12.47;;
11568;SDS011;5840;46.894;15.542;2023-03-23T03:35:15;14.43;;;13.20;;
11568;SDS011;5840;46.894;15.542;2023-03-23T03:37:42;15.07;;;13.77;;
11568;SDS011;5840;46.894;15.542;2023-03-23T03:40:12;14.83;;;13.43;;
11568;SDS011;5840;46.894;15.542;2023-03-23T03:42:41;14.30;;;13.10;;
11568;SDS011;5840;46.894;15.542;2023-03-23T03:45:11;14.40;;;13.00;;
11568;SDS011;5840;46.894;15.542;2023-03-23T03:47:39;14.40;;;13.13;;
11568;SDS011;5840;46.894;15.542;2023-03-23T03:50:07;15.57;;;14.07;;
11568;SDS011;5840;46.894;15.542;2023-03-23T03:52:36;14.43;;;13.13;;
11568;SDS011;5840;46.894;15.542;2023-03-23T03:55:05;13.93;;;12.73;;
11568;SDS011;5840;46.894;15.542;2023-03-23T03:57:33;13.70;;;12.50;;
11568;SDS011;5840;46.894;15.542;2023-03-23T04:00:00;15.07;;;13.50;;
11568;SDS011;5840;46.894;15.542;2023-03-23T04:02:37;13.50;;;12.30;;
11568;SDS011;5840;46.894;15.542;2023-03-23T04:05:05;12.67;;;11.67;;
11568;SDS011;5840;46.894;15.542;2023-03-23T04:07:34;12.67;;;11.67;;
11568;SDS011;5840;46.894;15.542;2023-03-23T04:10:04;12.67;;;11.53;;
11568;SDS011;5840;46.894;15.542;2023-03-23T04:12:33;12.77;;;11.77;;
11568;SDS011;5840;46.894;15.542;2023-03-23T04:15:00;13.13;;;11.97;;
11568;SDS011;5840;46.894;15.542;2023-03-23T04:17:27;13.27;;;11.97;;
11568;SDS011;5840;46.894;15.542;2023-03-23T04:19:55;12.13;;;11.13;;
11568;SDS011;5840;46.894;15.542;2023-03-23T04:22:24;14.13;;;12.90;;
11568;SDS011;5840;46.894;15.542;2023-03-23T04:24:57;11.97;;;11.00;;
11568;SDS011;5840;46.894;15.542;2023-03-23T04:27:26;12.87;;;11.73;;
11568;SDS011;5840;46.894;15.542;2023-03-23T04:29:54;13.77;;;12.57;;
11568;SDS011;5840;46.894;15.542;2023-03-23T04:32:23;14.00;;;12.80;;
11568;SDS011;5840;46.894;15.542;2023-03-23T04:34:54;14.07;;;12.83;;
11568;SDS011;5840;46.894;15.542;2023-03-23T04:37:23;14.27;;;12.97;;
11568;SDS011;5840;46.894;15.542;2023-03-23T04:39:54;12.67;;;11.57;;
11568;SDS011;5840;46.894;15.542;2023-03-23T04:42:26;13.07;;;11.97;;
11568;SDS011;5840;46.894;15.542;2023-03-23T04:44:54;12.23;;;11.23;;
11568;SDS011;5840;46.894;15.542;2023-03-23T04:47:22;11.70;;;10.60;;
11568;SDS011;5840;46.894;15.542;2023-03-23T04:49:50;12.00;;;10.90;;
11568;SDS011;5840;46.894;15.542;2023-03-23T04:52:18;11.73;;;10.67;;
11568;SDS011;5840;46.894;15.542;2023-03-23T04:54:45;11.70;;;10.57;;
11568;SDS011;5840;46.894;15.542;2023-03-23T04:57:12;12.00;;;10.73;;
11568;SDS011;5840;46.894;15.542;2023-03-23T04:59:42;10.53;;;9.73;;
11568;SDS011;5840;46.894;15.542;2023-03-23T05:02:09;11.67;;;10.50;;
11568;SDS011;5840;46.894;15.542;2023-03-23T05:04:38;11.53;;;10.63;;
11568;SDS011;5840;46.894;15.542;2023-03-23T05:07:05;12.30;;;11.20;;
11568;SDS011;5840;46.894;15.542;2023-03-23T05:09:33;12.47;;;11.50;;
11568;SDS011;5840;46.894;15.542;2023-03-23T05:12:03;11.90;;;10.87;;
11568;SDS011;5840;46.894;15.542;2023-03-23T05:14:31;10.90;;;10.00;;
11568;SDS011;5840;46.894;15.542;2023-03-23T05:16:59;10.73;;;9.90;;
11568;SDS011;5840;46.894;15.542;2023-03-23T05:19:26;11.67;;;10.57;;
11568;SDS011;5840;46.894;15.542;2023-03-23T05:21:56;11.47;;;10.47;;
11568;SDS011;5840;46.894;15.542;2023-03-23T05:24:27;12.40;;;11.40;;
11568;SDS011;5840;46.894;15.542;2023-03-23T05:26:56;12.50;;;11.57;;
11568;SDS011;5840;46.894;15.542;2023-03-23T05:29:23;12.20;;;11.20;;
11568;SDS011;5840;46.894;15.542;2023-03-23T05:31:50;12.10;;;11.10;;
11568;SDS011;5840;46.894;15.542;2023-03-23T05:34:22;12.03;;;11.03;;
11568;SDS011;5840;46.894;15.542;2023-03-23T05:36:51;11.10;;;10.10;;
11568;SDS011;5840;46.894;15.542;2023-03-23T05:39:20;11.87;;;10.77;;
11568;SDS011;5840;46.894;15.542;2023-03-23T05:41:47;12.13;;;11.13;;
11568;SDS011;5840;46.894;15.542;2023-03-23T05:44:14;11.27;;;10.23;;
11568;SDS011;5840;46.894;15.542;2023-03-23T05:46:41;11.03;;;10.03;;
11568;SDS011;5840;46.894;15.542;2023-03-23T05:49:08;10.60;;;9.77;;
11568;SDS011;5840;46.894;15.542;2023-03-23T05:51:37;10.00;;;9.20;;
11568;SDS011;5840;46.894;15.542;2023-03-23T05:54:04;10.57;;;9.73;;
11568;SDS011;5840;46.894;15.542;2023-03-23T05:56:31;10.27;;;9.53;;
11568;SDS011;5840;46.894;15.542;2023-03-23T05:58:58;11.00;;;9.90;;
11568;SDS011;5840;46.894;15.542;2023-03-23T06:01:26;11.03;;;10.03;;
11568;SDS011;5840;46.894;15.542;2023-03-23T06:03:53;10.97;;;9.97;;
11568;SDS011;5840;46.894;15.542;2023-03-23T06:06:23;14.80;;;13.73;;
11568;SDS011;5840;46.894;15.542;2023-03-23T06:08:52;21.17;;;19.30;;
11568;SDS011;5840;46.894;15.542;2023-03-23T06:11:19;15.03;;;13.63;;
11568;SDS011;5840;46.894;15.542;2023-03-23T06:13:46;12.43;;;11.17;;
11568;SDS011;5840;46.894;15.542;2023-03-23T06:16:13;10.83;;;9.73;;
11568;SDS011;5840;46.894;15.542;2023-03-23T06:18:41;11.03;;;10.13;;
11568;SDS011;5840;46.894;15.542;2023-03-23T06:21:08;10.50;;;9.80;;
11568;SDS011;5840;46.894;15.542;2023-03-23T06:23:36;11.30;;;10.20;;
11568;SDS011;5840;46.894;15.542;2023-03-23T06:26:06;11.33;;;10.23;;
11568;SDS011;5840;46.894;15.542;2023-03-23T06:28:35;10.23;;;9.33;;
11568;SDS011;5840;46.894;15.542;2023-03-23T06:31:03;11.53;;;9.60;;
11568;SDS011;5840;46.894;15.542;2023-03-23T06:33:32;10.50;;;9.70;;
11568;SDS011;5840;46.894;15.542;2023-03-23T06:36:00;12.10;;;10.37;;
11568;SDS011;5840;46.894;15.542;2023-03-23T06:38:28;11.37;;;10.47;;
11568;SDS011;5840;46.894;15.542;2023-03-23T06:40:55;10.50;;;9.60;;
11568;SDS011;5840;46.894;15.542;2023-03-23T06:43:24;11.17;;;10.17;;
11568;SDS011;5840;46.894;15.542;2023-03-23T06:45:51;12.20;;;11.10;;
11568;SDS011;5840;46.894;15.542;2023-03-23T06:48:18;13.07;;;11.87;;
11568;SDS011;5840;46.894;15.542;2023-03-23T06:50:45;13.63;;;11.87;;
11568;SDS011;5840;46.894;15.542;2023-03-23T06:53:13;12.33;;;11.17;;
11568;SDS011;5840;46.894;15.542;2023-03-23T06:55:42;13.47;;;12.20;;
11568;SDS011;5840;46.894;15.542;2023-03-23T06:58:10;12.07;;;11.07;;
11568;SDS011;5840;46.894;15.542;2023-03-23T07:00:38;12.77;;;11.40;;
11568;SDS011;5840;46.894;15.542;2023-03-23T07:03:05;13.37;;;12.00;;
11568;SDS011;5840;46.894;15.542;2023-03-23T07:05:33;14.70;;;13.20;;
11568;SDS011;5840;46.894;15.542;2023-03-23T07:08:01;17.50;;;15.57;;
11568;SDS011;5840;46.894;15.542;2023-03-23T07:10:28;34.80;;;25.10;;
11568;SDS011;5840;46.894;15.542;2023-03-23T07:12:56;22.17;;;18.77;;
11568;SDS011;5840;46.894;15.542;2023-03-23T07:15:24;18.97;;;16.67;;
11568;SDS011;5840;46.894;15.542;2023-03-23T07:17:53;16.53;;;14.90;;
11568;SDS011;5840;46.894;15.542;2023-03-23T07:20:20;13.53;;;12.33;;
11568;SDS011;5840;46.894;15.542;2023-03-23T07:22:47;13.70;;;12.20;;
11568;SDS011;5840;46.894;15.542;2023-03-23T07:25:15;12.57;;;11.37;;
11568;SDS011;5840;46.894;15.542;2023-03-23T07:27:42;32.90;;;20.70;;
11568;SDS011;5840;46.894;15.542;2023-03-23T07:30:11;39.20;;;25.07;;
11568;SDS011;5840;46.894;15.542;2023-03-23T07:32:39;19.97;;;16.63;;
11568;SDS011;5840;46.894;15.542;2023-03-23T07:35:08;16.40;;;14.13;;
11568;SDS011;5840;46.894;15.542;2023-03-23T07:37:36;12.77;;;11.47;;
11568;SDS011;5840;46.894;15.542;2023-03-23T07:40:03;13.37;;;11.40;;
11568;SDS011;5840;46.894;15.542;2023-03-23T07:42:39;11.93;;;10.63;;
11568;SDS011;5840;46.894;15.542;2023-03-23T07:45:07;13.53;;;10.13;;
11568;SDS011;5840;46.894;15.542;2023-03-23T07:47:35;13.73;;;12.33;;
11568;SDS011;5840;46.894;15.542;2023-03-23T07:50:03;11.83;;;10.73;;
11568;SDS011;5840;46.894;15.542;2023-03-23T07:52:32;11.33;;;10.33;;
11568;SDS011;5840;46.894;15.542;2023-03-23T07:55:00;11.73;;;10.17;;
11568;SDS011;5840;46.894;15.542;2023-03-23T07:57:28;10.57;;;9.70;;
11568;SDS011;5840;46.894;15.542;2023-03-23T07:59:55;10.93;;;9.93;;
11568;SDS011;5840;46.894;15.542;2023-03-23T08:02:23;11.10;;;10.00;;
11568;SDS011;5840;46.894;15.542;2023-03-23T08:04:51;10.47;;;9.47;;
11568;SDS011;5840;46.894;15.542;2023-03-23T08:07:19;10.43;;;9.53;;
11568;SDS011;5840;46.894;15.542;2023-03-23T08:09:47;11.83;;;10.23;;
11568;SDS011;5840;46.894;15.542;2023-03-23T08:12:14;10.33;;;9.43;;
11568;SDS011;5840;46.894;15.542;2023-03-23T08:14:42;10.87;;;9.80;;
11568;SDS011;5840;46.894;15.542;2023-03-23T08:17:09;10.67;;;9.87;;
11568;SDS011;5840;46.894;15.542;2023-03-23T08:19:36;10.60;;;9.63;;
11568;SDS011;5840;46.894;15.542;2023-03-23T08:22:03;10.50;;;9.57;;
11568;SDS011;5840;46.894;15.542;2023-03-23T08:24:30;11.53;;;9.20;;
11568;SDS011;5840;46.894;15.542;2023-03-23T08:26:59;10.50;;;9.50;;
11568;SDS011;5840;46.894;15.542;2023-03-23T08:29:26;11.00;;;9.10;;
11568;SDS011;5840;46.894;15.542;2023-03-23T08:31:53;10.03;;;9.13;;
11568;SDS011;5840;46.894;15.542;2023-03-23T08:34:20;10.37;;;9.30;;
11568;SDS011;5840;46.894;15.542;2023-03-23T08:36:47;9.40;;;8.60;;
11568;SDS011;5840;46.894;15.542;2023-03-23T08:39:16;9.73;;;8.90;;
11568;SDS011;5840;46.894;15.542;2023-03-23T08:41:44;9.97;;;9.17;;
11568;SDS011;5840;46.894;15.542;2023-03-23T08:44:12;9.93;;;8.93;;
11568;SDS011;5840;46.894;15.542;2023-03-23T08:46:40;8.93;;;7.97;;
11568;SDS011;5840;46.894;15.542;2023-03-23T08:49:07;8.93;;;7.70;;
11568;SDS011;5840;46.894;15.542;2023-03-23T08:51:34;7.40;;;6.80;;
11568;SDS011;5840;46.894;15.542;2023-03-23T08:54:02;7.37;;;6.67;;
11568;SDS011;5840;46.894;15.542;2023-03-23T08:56:29;8.37;;;7.40;;
11568;SDS011;5840;46.894;15.542;2023-03-23T08:58:56;8.53;;;7.73;;
11568;SDS011;5840;46.894;15.542;2023-03-23T09:01:24;8.90;;;8.10;;
11568;SDS011;5840;46.894;15.542;2023-03-23T09:03:51;8.60;;;7.87;;
11568;SDS011;5840;46.894;15.542;2023-03-23T09:06:19;9.17;;;8.27;;
11568;SDS011;5840;46.894;15.542;2023-03-23T09:08:46;9.63;;;8.70;;
11568;SDS011;5840;46.894;15.542;2023-03-23T09:11:13;9.37;;;8.60;;
11568;SDS011;5840;46.894;15.542;2023-03-23T09:13:40;10.23;;;9.20;;
11568;SDS011;5840;46.894;15.542;2023-03-23T09:16:08;9.73;;;8.80;;
11568;SDS011;5840;46.894;15.542;2023-03-23T09:18:36;9.70;;;8.80;;
11568;SDS011;5840;46.894;15.542;2023-03-23T09:21:04;9.90;;;9.10;;
11568;SDS011;5840;46.894;15.542;2023-03-23T09:23:31;9.00;;;8.20;;
11568;SDS011;5840;46.894;15.542;2023-03-23T09:25:59;9.40;;;8.47;;
11568;SDS011;5840;46.894;15.542;2023-03-23T09:28:27;9.30;;;8.37;;
11568;SDS011;5840;46.894;15.542;2023-03-23T09:30:54;9.47;;;8.53;;
11568;SDS011;5840;46.894;15.542;2023-03-23T09:33:22;8.90;;;8.20;;
11568;SDS011;5840;46.894;15.542;2023-03-23T09:35:52;9.63;;;8.70;;
11568;SDS011;5840;46.894;15.542;2023-03-23T09:38:19;10.00;;;9.20;;
11568;SDS011;5840;46.894;15.542;2023-03-23T09:40:47;9.27;;;8.13;;
11568;SDS011;5840;46.894;15.542;2023-03-23T09:43:23;9.23;;;8.43;;
11568;SDS011;5840;46.894;15.542;2023-03-23T09:46:16;9.93;;;9.03;;
11568;SDS011;5840;46.894;15.542;2023-03-23T09:48:53;10.10;;;9.20;;
11568;SDS011;5840;46.894;15.542;2023-03-23T09:51:31;9.60;;;8.90;;
11568;SDS011;5840;46.894;15.542;2023-03-23T09:54:09;9.77;;;8.93;;
11568;SDS011;5840;46.894;15.542;2023-03-23T09:56:40;9.13;;;8.33;;
11568;SDS011;5840;46.894;15.542;2023-03-23T09:59:10;9.07;;;8.10;;
11568;SDS011;5840;46.894;15.542;2023-03-23T10:01:43;9.30;;;8.40;;
11568;SDS011;5840;46.894;15.542;2023-03-23T10:04:14;9.23;;;8.40;;
11568;SDS011;5840;46.894;15.542;2023-03-23T10:06:51;9.23;;;8.40;;
11568;SDS011;5840;46.894;15.542;2023-03-23T10:09:19;9.00;;;8.20;;
11568;SDS011;5840;46.894;15.542;2023-03-23T10:11:52;8.87;;;8.17;;
11568;SDS011;5840;46.894;15.542;2023-03-23T10:14:31;10.37;;;9.47;;
11568;SDS011;5840;46.894;15.542;2023-03-23T10:17:09;8.90;;;8.10;;
11568;SDS011;5840;46.894;15.542;2023-03-23T10:19:41;9.07;;;8.13;;
11568;SDS011;5840;46.894;15.542;2023-03-23T10:22:16;8.50;;;7.70;;
11568;SDS011;5840;46.894;15.542;2023-03-23T10:24:49;10.13;;;8.90;;
11568;SDS011;5840;46.894;15.542;2023-03-23T10:27:24;9.23;;;8.47;;
11568;SDS011;5840;46.894;15.542;2023-03-23T10:29:55;9.20;;;8.50;;
11568;SDS011;5840;46.894;15.542;2023-03-23T10:32:39;9.07;;;8.33;;
11568;SDS011;5840;46.894;15.542;2023-03-23T10:35:11;9.60;;;8.70;;
11568;SDS011;5840;46.894;15.542;2023-03-23T10:37:43;9.27;;;8.47;;
11568;SDS011;5840;46.894;15.542;2023-03-23T10:40:14;8.90;;;8.10;;
11568;SDS011;5840;46.894;15.542;2023-03-23T10:42:44;9.87;;;8.97;;
11568;SDS011;5840;46.894;15.542;2023-03-23T10:45:15;10.27;;;9.40;;
11568;SDS011;5840;46.894;15.542;2023-03-23T10:47:48;9.30;;;8.60;;
11568;SDS011;5840;46.894;15.542;2023-03-23T10:50:21;10.17;;;9.37;;
11568;SDS011;5840;46.894;15.542;2023-03-23T10:52:53;9.53;;;8.73;;
11568;SDS011;5840;46.894;15.542;2023-03-23T10:55:22;9.47;;;8.50;;
11568;SDS011;5840;46.894;15.542;2023-03-23T10:57:59;10.53;;;9.23;;
11568;SDS011;5840;46.894;15.542;2023-03-23T11:00:27;9.20;;;8.40;;
11568;SDS011;5840;46.894;15.542;2023-03-23T11:02:59;10.17;;;9.30;;
11568;SDS011;5840;46.894;15.542;2023-03-23T11:05:32;8.77;;;8.03;;
11568;SDS011;5840;46.894;15.542;2023-03-23T11:08:04;9.30;;;8.47;;
11568;SDS011;5840;46.894;15.542;2023-03-23T11:10:39;8.80;;;8.10;;
11568;SDS011;5840;46.894;15.542;2023-03-23T11:13:10;9.00;;;8.20;;
11568;SDS011;5840;46.894;15.542;2023-03-23T11:15:40;8.53;;;7.93;;
11568;SDS011;5840;46.894;15.542;2023-03-23T11:18:11;6.90;;;6.40;;
11568;SDS011;5840;46.894;15.542;2023-03-23T11:20:39;8.43;;;7.80;;
11568;SDS011;5840;46.894;15.542;2023-03-23T11:23:15;8.50;;;7.70;;
11568;SDS011;5840;46.894;15.542;2023-03-23T11:25:54;7.57;;;7.00;;
11568;SDS011;5840;46.894;15.542;2023-03-23T11:28:27;7.90;;;7.30;;
11568;SDS011;5840;46.894;15.542;2023-03-23T11:30:57;8.10;;;7.40;;
11568;SDS011;5840;46.894;15.542;2023-03-23T11:33:28;7.93;;;7.20;;
11568;SDS011;5840;46.894;15.542;2023-03-23T11:35:56;7.97;;;7.27;;
11568;SDS011;5840;46.894;15.542;2023-03-23T11:38:25;7.63;;;7.03;;
11568;SDS011;5840;46.894;15.542;2023-03-23T11:40:53;7.87;;;7.13;;
11568;SDS011;5840;46.894;15.542;2023-03-23T11:43:21;7.43;;;6.83;;
11568;SDS011;5840;46.894;15.542;2023-03-23T11:45:50;7.87;;;7.27;;
11568;SDS011;5840;46.894;15.542;2023-03-23T11:48:26;7.70;;;7.10;;
11568;SDS011;5840;46.894;15.542;2023-03-23T11:51:01;7.90;;;7.20;;
11568;SDS011;5840;46.894;15.542;2023-03-23T11:53:37;7.93;;;7.30;;
11568;SDS011;5840;46.894;15.542;2023-03-23T11:56:14;7.50;;;6.87;;
11568;SDS011;5840;46.894;15.542;2023-03-23T11:58:49;7.50;;;6.90;;
11568;SDS011;5840;46.894;15.542;2023-03-23T12:01:21;8.50;;;7.80;;
11568;SDS011;5840;46.894;15.542;2023-03-23T12:04:02;7.17;;;6.63;;
11568;SDS011;5840;46.894;15.542;2023-03-23T12:06:52;8.30;;;7.50;;
11568;SDS011;5840;46.894;15.542;2023-03-23T12:09:33;7.50;;;6.90;;
11568;SDS011;5840;46.894;15.542;2023-03-23T12:12:11;7.73;;;7.00;;
11568;SDS011;5840;46.894;15.542;2023-03-23T12:14:46;7.83;;;7.13;;
11568;SDS011;5840;46.894;15.542;2023-03-23T12:17:24;7.60;;;6.90;;
11568;SDS011;5840;46.894;15.542;2023-03-23T12:20:02;8.00;;;7.30;;
11568;SDS011;5840;46.894;15.542;2023-03-23T12:22:43;7.60;;;7.00;;
11568;SDS011;5840;46.894;15.542;2023-03-23T12:25:42;8.17;;;6.80;;
11568;SDS011;5840;46.894;15.542;2023-03-23T12:28:29;7.60;;;6.90;;
11568;SDS011;5840;46.894;15.542;2023-03-23T12:31:07;7.97;;;7.37;;
11568;SDS011;5840;46.894;15.542;2023-03-23T12:33:43;8.13;;;7.20;;
11568;SDS011;5840;46.894;15.542;2023-03-23T12:36:23;7.40;;;6.80;;
11568;SDS011;5840;46.894;15.542;2023-03-23T12:39:08;7.47;;;6.63;;
11568;SDS011;5840;46.894;15.542;2023-03-23T12:42:00;7.87;;;7.07;;
11568;SDS011;5840;46.894;15.542;2023-03-23T12:44:38;7.50;;;6.90;;
11568;SDS011;5840;46.894;15.542;2023-03-23T12:47:17;8.40;;;7.60;;
11568;SDS011;5840;46.894;15.542;2023-03-23T12:49:58;7.57;;;7.07;;
11568;SDS011;5840;46.894;15.542;2023-03-23T12:52:31;7.97;;;7.27;;
11568;SDS011;5840;46.894;15.542;2023-03-23T12:55:05;7.70;;;6.40;;
11568;SDS011;5840;46.894;15.542;2023-03-23T12:57:43;8.10;;;7.40;;
11568;SDS011;5840;46.894;15.542;2023-03-23T13:00:14;8.00;;;7.30;;
11568;SDS011;5840;46.894;15.542;2023-03-23T13:02:48;9.00;;;7.20;;
11568;SDS011;5840;46.894;15.542;2023-03-23T13:05:27;7.53;;;6.80;;
11568;SDS011;5840;46.894;15.542;2023-03-23T13:08:00;7.47;;;6.77;;
11568;SDS011;5840;46.894;15.542;2023-03-23T13:10:32;7.80;;;7.10;;
11568;SDS011;5840;46.894;15.542;2023-03-23T13:13:03;8.47;;;7.10;;
11568;SDS011;5840;46.894;15.542;2023-03-23T13:15:33;8.10;;;7.43;;
11568;SDS011;5840;46.894;15.542;2023-03-23T13:18:10;7.97;;;7.30;;
11568;SDS011;5840;46.894;15.542;2023-03-23T13:23:33;7.43;;;6.80;;
11568;SDS011;5840;46.894;15.542;2023-03-23T13:26:05;7.73;;;7.13;;
11568;SDS011;5840;46.894;15.542;2023-03-23T13:28:44;7.00;;;6.40;;
11568;SDS011;5840;46.894;15.542;2023-03-23T13:31:20;6.83;;;6.23;;
11568;SDS011;5840;46.894;15.542;2023-03-23T13:33:51;6.47;;;6.07;;
11568;SDS011;5840;46.894;15.542;2023-03-23T13:36:24;8.73;;;8.00;;
11568;SDS011;5840;46.894;15.542;2023-03-23T13:38:54;7.80;;;7.03;;
11568;SDS011;5840;46.894;15.542;2023-03-23T13:41:22;7.00;;;6.50;;
11568;SDS011;5840;46.894;15.542;2023-03-23T13:43:51;8.17;;;7.43;;
11568;SDS011;5840;46.894;15.542;2023-03-23T13:46:25;7.93;;;7.33;;
11568;SDS011;5840;46.894;15.542;2023-03-23T13:49:14;7.77;;;7.07;;
11568;SDS011;5840;46.894;15.542;2023-03-23T13:51:51;9.93;;;7.67;;
11568;SDS011;5840;46.894;15.542;2023-03-23T13:54:42;8.17;;;7.57;;
11568;SDS011;5840;46.894;15.542;2023-03-23T13:57:21;8.47;;;7.60;;
11568;SDS011;5840;46.894;15.542;2023-03-23T13:59:58;8.93;;;7.60;;
11568;SDS011;5840;46.894;15.542;2023-03-23T14:02:38;8.97;;;8.07;;
11568;SDS011;5840;46.894;15.542;2023-03-23T14:05:19;9.13;;;8.27;;
11568;SDS011;5840;46.894;15.542;2023-03-23T14:07:59;10.57;;;9.67;;
11568;SDS011;5840;46.894;15.542;2023-03-23T14:10:33;10.10;;;9.10;;
11568;SDS011;5840;46.894;15.542;2023-03-23T14:13:02;10.00;;;9.20;;
11568;SDS011;5840;46.894;15.542;2023-03-23T14:15:37;9.57;;;8.77;;
11568;SDS011;5840;46.894;15.542;2023-03-23T14:18:13;9.23;;;8.43;;
11568;SDS011;5840;46.894;15.542;2023-03-23T14:20:42;10.60;;;9.70;;
11568;SDS011;5840;46.894;15.542;2023-03-23T14:23:14;9.50;;;8.47;;
11568;SDS011;5840;46.894;15.542;2023-03-23T14:25:43;9.30;;;8.60;;
11568;SDS011;5840;46.894;15.542;2023-03-23T14:28:17;10.07;;;9.10;;
11568;SDS011;5840;46.894;15.542;2023-03-23T14:30:47;10.60;;;9.53;;
11568;SDS011;5840;46.894;15.542;2023-03-23T14:33:18;11.20;;;10.00;;
11568;SDS011;5840;46.894;15.542;2023-03-23T14:35:46;10.80;;;9.90;;
11568;SDS011;5840;46.894;15.542;2023-03-23T14:38:15;9.90;;;9.00;;
11568;SDS011;5840;46.894;15.542;2023-03-23T14:40:44;9.40;;;8.70;;
11568;SDS011;5840;46.894;15.542;2023-03-23T14:43:14;10.40;;;9.57;;
11568;SDS011;5840;46.894;15.542;2023-03-23T14:45:42;11.40;;;10.30;;
11568;SDS011;5840;46.894;15.542;2023-03-23T14:48:12;12.17;;;9.97;;
11568;SDS011;5840;46.894;15.542;2023-03-23T14:50:42;11.57;;;10.13;;
11568;SDS011;5840;46.894;15.542;2023-03-23T14:53:16;11.03;;;10.23;;
11568;SDS011;5840;46.894;15.542;2023-03-23T14:55:46;11.53;;;10.20;;
11568;SDS011;5840;46.894;15.542;2023-03-23T14:58:15;10.90;;;10.03;;